Terminal Aerodrome Forecast
Issued by NWS Missoula, MT

Home | Current Version | Previous Version | Text Only | Print | Product List | Glossary On
Versions: 1 2 3 4 5 6 7 8 9 10 11 12 13 14 15 16 17 18 19 20
000
FTUS45 KMSO 210500
TAFGPI
TAF
KGPI 210530Z 2106/2206 17010KT P6SM VCTS BKN060CB
     FM210800 02010KT P6SM VCSH BKN050
     FM211500 07012KT P6SM BKN050
     FM212200 07010KT P6SM VCSH BKN050
     FM220300 02009KT P6SM BKN050=

USA.gov is the U.S. government's official web portal to all federal, state and local government web resources and services.